sensor_id;sensor_type;location;lat;lon;timestamp;P1;durP1;ratioP1;P2;durP2;ratioP2
47760;SDS011;33524;55.434;38.520;2023-04-23T00:01:16;43.05;;;14.70;;
47760;SDS011;33524;55.434;38.520;2023-04-23T00:03:45;21.75;;;12.98;;
47760;SDS011;33524;55.434;38.520;2023-04-23T00:06:16;20.73;;;14.73;;
47760;SDS011;33524;55.434;38.520;2023-04-23T00:08:45;19.42;;;10.88;;
47760;SDS011;33524;55.434;38.520;2023-04-23T00:11:14;25.30;;;13.68;;
47760;SDS011;33524;55.434;38.520;2023-04-23T00:13:42;24.37;;;14.82;;
47760;SDS011;33524;55.434;38.520;2023-04-23T00:16:11;21.33;;;13.85;;
47760;SDS011;33524;55.434;38.520;2023-04-23T00:18:40;28.17;;;16.37;;
47760;SDS011;33524;55.434;38.520;2023-04-23T00:21:08;28.95;;;15.95;;
47760;SDS011;33524;55.434;38.520;2023-04-23T00:23:36;27.60;;;16.12;;
47760;SDS011;33524;55.434;38.520;2023-04-23T00:26:05;26.62;;;15.40;;
47760;SDS011;33524;55.434;38.520;2023-04-23T00:28:33;24.25;;;15.05;;
47760;SDS011;33524;55.434;38.520;2023-04-23T00:31:01;23.77;;;14.02;;
47760;SDS011;33524;55.434;38.520;2023-04-23T00:33:29;26.75;;;15.40;;
47760;SDS011;33524;55.434;38.520;2023-04-23T00:35:57;25.15;;;13.62;;
47760;SDS011;33524;55.434;38.520;2023-04-23T00:38:26;18.12;;;11.15;;
47760;SDS011;33524;55.434;38.520;2023-04-23T00:40:54;24.90;;;13.70;;
47760;SDS011;33524;55.434;38.520;2023-04-23T00:43:22;22.17;;;13.82;;
47760;SDS011;33524;55.434;38.520;2023-04-23T00:45:51;23.30;;;14.30;;
47760;SDS011;33524;55.434;38.520;2023-04-23T00:48:19;38.95;;;16.00;;
47760;SDS011;33524;55.434;38.520;2023-04-23T00:50:47;29.33;;;16.70;;
47760;SDS011;33524;55.434;38.520;2023-04-23T00:53:15;27.73;;;15.98;;
47760;SDS011;33524;55.434;38.520;2023-04-23T00:55:43;23.50;;;12.90;;
47760;SDS011;33524;55.434;38.520;2023-04-23T00:58:11;25.45;;;14.43;;
47760;SDS011;33524;55.434;38.520;2023-04-23T01:00:42;27.95;;;17.10;;
47760;SDS011;33524;55.434;38.520;2023-04-23T01:03:14;26.92;;;19.08;;
47760;SDS011;33524;55.434;38.520;2023-04-23T01:05:45;24.12;;;13.55;;
47760;SDS011;33524;55.434;38.520;2023-04-23T01:08:15;24.87;;;13.85;;
47760;SDS011;33524;55.434;38.520;2023-04-23T01:10:45;23.80;;;12.48;;
47760;SDS011;33524;55.434;38.520;2023-04-23T01:13:14;17.73;;;10.70;;
47760;SDS011;33524;55.434;38.520;2023-04-23T01:15:42;24.60;;;15.52;;
47760;SDS011;33524;55.434;38.520;2023-04-23T01:18:13;26.23;;;16.92;;
47760;SDS011;33524;55.434;38.520;2023-04-23T01:20:41;26.20;;;13.57;;
47760;SDS011;33524;55.434;38.520;2023-04-23T01:23:10;22.87;;;14.65;;
47760;SDS011;33524;55.434;38.520;2023-04-23T01:25:38;27.58;;;15.50;;
47760;SDS011;33524;55.434;38.520;2023-04-23T01:28:07;26.75;;;16.52;;
47760;SDS011;33524;55.434;38.520;2023-04-23T01:30:36;26.33;;;16.87;;
47760;SDS011;33524;55.434;38.520;2023-04-23T01:33:05;28.90;;;16.23;;
47760;SDS011;33524;55.434;38.520;2023-04-23T01:35:34;27.15;;;14.27;;
47760;SDS011;33524;55.434;38.520;2023-04-23T01:38:03;26.90;;;17.92;;
47760;SDS011;33524;55.434;38.520;2023-04-23T01:40:33;35.20;;;21.80;;
47760;SDS011;33524;55.434;38.520;2023-04-23T01:43:01;36.47;;;21.75;;
47760;SDS011;33524;55.434;38.520;2023-04-23T01:45:30;19.48;;;12.13;;
47760;SDS011;33524;55.434;38.520;2023-04-23T01:47:59;17.00;;;11.15;;
47760;SDS011;33524;55.434;38.520;2023-04-23T01:50:28;27.77;;;17.85;;
47760;SDS011;33524;55.434;38.520;2023-04-23T01:52:56;32.25;;;19.12;;
47760;SDS011;33524;55.434;38.520;2023-04-23T01:55:24;41.13;;;23.77;;
47760;SDS011;33524;55.434;38.520;2023-04-23T01:57:52;33.05;;;21.67;;
47760;SDS011;33524;55.434;38.520;2023-04-23T02:00:20;25.27;;;15.48;;
47760;SDS011;33524;55.434;38.520;2023-04-23T02:02:49;38.75;;;22.30;;
47760;SDS011;33524;55.434;38.520;2023-04-23T02:05:20;39.10;;;23.48;;
47760;SDS011;33524;55.434;38.520;2023-04-23T02:07:49;35.88;;;21.17;;
47760;SDS011;33524;55.434;38.520;2023-04-23T02:10:18;28.62;;;15.30;;
47760;SDS011;33524;55.434;38.520;2023-04-23T02:12:48;19.45;;;10.82;;
47760;SDS011;33524;55.434;38.520;2023-04-23T02:15:16;20.35;;;11.77;;
47760;SDS011;33524;55.434;38.520;2023-04-23T02:17:46;28.00;;;17.27;;
47760;SDS011;33524;55.434;38.520;2023-04-23T02:20:18;19.33;;;11.18;;
47760;SDS011;33524;55.434;38.520;2023-04-23T02:22:46;18.20;;;10.60;;
47760;SDS011;33524;55.434;38.520;2023-04-23T02:25:15;27.37;;;14.30;;
47760;SDS011;33524;55.434;38.520;2023-04-23T02:27:46;30.00;;;15.68;;
47760;SDS011;33524;55.434;38.520;2023-04-23T02:30:15;26.95;;;16.25;;
47760;SDS011;33524;55.434;38.520;2023-04-23T02:32:43;17.37;;;11.05;;
47760;SDS011;33524;55.434;38.520;2023-04-23T02:35:11;20.42;;;12.90;;
47760;SDS011;33524;55.434;38.520;2023-04-23T02:37:39;20.65;;;13.23;;
47760;SDS011;33524;55.434;38.520;2023-04-23T02:40:07;21.73;;;11.07;;
47760;SDS011;33524;55.434;38.520;2023-04-23T02:42:36;22.45;;;12.43;;
47760;SDS011;33524;55.434;38.520;2023-04-23T02:45:05;18.58;;;11.77;;
47760;SDS011;33524;55.434;38.520;2023-04-23T02:47:34;19.30;;;11.38;;
47760;SDS011;33524;55.434;38.520;2023-04-23T02:50:02;23.70;;;11.15;;
47760;SDS011;33524;55.434;38.520;2023-04-23T02:52:32;14.38;;;10.15;;
47760;SDS011;33524;55.434;38.520;2023-04-23T02:55:00;15.82;;;9.50;;
47760;SDS011;33524;55.434;38.520;2023-04-23T02:57:29;28.70;;;15.90;;
47760;SDS011;33524;55.434;38.520;2023-04-23T02:59:57;29.00;;;14.52;;
47760;SDS011;33524;55.434;38.520;2023-04-23T03:02:33;22.60;;;12.30;;
47760;SDS011;33524;55.434;38.520;2023-04-23T03:05:01;18.98;;;10.68;;
47760;SDS011;33524;55.434;38.520;2023-04-23T03:07:30;20.17;;;13.13;;
47760;SDS011;33524;55.434;38.520;2023-04-23T03:09:58;17.20;;;12.50;;
47760;SDS011;33524;55.434;38.520;2023-04-23T03:12:29;26.83;;;14.82;;
47760;SDS011;33524;55.434;38.520;2023-04-23T03:14:59;24.85;;;15.65;;
47760;SDS011;33524;55.434;38.520;2023-04-23T03:17:29;17.98;;;10.88;;
47760;SDS011;33524;55.434;38.520;2023-04-23T03:19:57;20.58;;;10.60;;
47760;SDS011;33524;55.434;38.520;2023-04-23T03:22:25;19.73;;;9.75;;
47760;SDS011;33524;55.434;38.520;2023-04-23T03:24:54;19.55;;;11.82;;
47760;SDS011;33524;55.434;38.520;2023-04-23T03:27:22;24.77;;;13.32;;
47760;SDS011;33524;55.434;38.520;2023-04-23T03:29:50;21.25;;;10.57;;
47760;SDS011;33524;55.434;38.520;2023-04-23T03:32:18;31.62;;;18.65;;
47760;SDS011;33524;55.434;38.520;2023-04-23T03:34:47;30.33;;;18.65;;
47760;SDS011;33524;55.434;38.520;2023-04-23T03:37:15;27.75;;;17.08;;
47760;SDS011;33524;55.434;38.520;2023-04-23T03:39:44;20.10;;;12.15;;
47760;SDS011;33524;55.434;38.520;2023-04-23T03:42:13;26.37;;;13.77;;
47760;SDS011;33524;55.434;38.520;2023-04-23T03:44:42;23.25;;;13.48;;
47760;SDS011;33524;55.434;38.520;2023-04-23T03:47:11;19.52;;;12.45;;
47760;SDS011;33524;55.434;38.520;2023-04-23T03:49:39;23.38;;;12.63;;
47760;SDS011;33524;55.434;38.520;2023-04-23T03:52:07;21.55;;;13.65;;
47760;SDS011;33524;55.434;38.520;2023-04-23T03:54:36;18.60;;;12.65;;
47760;SDS011;33524;55.434;38.520;2023-04-23T03:57:07;21.40;;;13.62;;
47760;SDS011;33524;55.434;38.520;2023-04-23T03:59:35;22.95;;;12.10;;
47760;SDS011;33524;55.434;38.520;2023-04-23T04:02:03;15.25;;;10.60;;
47760;SDS011;33524;55.434;38.520;2023-04-23T04:04:44;17.50;;;11.50;;
47760;SDS011;33524;55.434;38.520;2023-04-23T04:07:16;18.33;;;12.27;;
47760;SDS011;33524;55.434;38.520;2023-04-23T04:09:46;25.77;;;16.83;;
47760;SDS011;33524;55.434;38.520;2023-04-23T04:12:15;25.00;;;14.13;;
47760;SDS011;33524;55.434;38.520;2023-04-23T04:14:44;21.30;;;11.77;;
47760;SDS011;33524;55.434;38.520;2023-04-23T04:17:12;23.67;;;15.07;;
47760;SDS011;33524;55.434;38.520;2023-04-23T04:19:42;24.17;;;13.50;;
47760;SDS011;33524;55.434;38.520;2023-04-23T04:22:10;22.45;;;12.98;;
47760;SDS011;33524;55.434;38.520;2023-04-23T04:24:38;16.92;;;11.30;;
47760;SDS011;33524;55.434;38.520;2023-04-23T04:27:08;23.35;;;14.48;;
47760;SDS011;33524;55.434;38.520;2023-04-23T04:29:38;27.00;;;16.08;;
47760;SDS011;33524;55.434;38.520;2023-04-23T04:32:15;26.40;;;16.48;;
47760;SDS011;33524;55.434;38.520;2023-04-23T04:34:43;22.48;;;13.68;;
47760;SDS011;33524;55.434;38.520;2023-04-23T04:37:11;16.15;;;11.30;;
47760;SDS011;33524;55.434;38.520;2023-04-23T04:39:39;23.77;;;14.45;;
47760;SDS011;33524;55.434;38.520;2023-04-23T04:42:07;22.08;;;12.35;;
47760;SDS011;33524;55.434;38.520;2023-04-23T04:44:35;29.55;;;13.52;;
47760;SDS011;33524;55.434;38.520;2023-04-23T04:47:04;18.80;;;9.75;;
47760;SDS011;33524;55.434;38.520;2023-04-23T04:49:34;22.83;;;11.95;;
47760;SDS011;33524;55.434;38.520;2023-04-23T04:52:03;16.65;;;11.23;;
47760;SDS011;33524;55.434;38.520;2023-04-23T04:54:31;19.92;;;12.30;;
47760;SDS011;33524;55.434;38.520;2023-04-23T04:56:59;21.52;;;14.95;;
47760;SDS011;33524;55.434;38.520;2023-04-23T04:59:28;18.00;;;10.80;;
47760;SDS011;33524;55.434;38.520;2023-04-23T05:01:56;22.67;;;13.00;;
47760;SDS011;33524;55.434;38.520;2023-04-23T05:04:25;15.10;;;9.98;;
47760;SDS011;33524;55.434;38.520;2023-04-23T05:06:53;22.95;;;13.15;;
47760;SDS011;33524;55.434;38.520;2023-04-23T05:09:21;16.27;;;9.95;;
47760;SDS011;33524;55.434;38.520;2023-04-23T05:11:50;24.70;;;12.00;;
47760;SDS011;33524;55.434;38.520;2023-04-23T05:14:18;23.60;;;12.75;;
47760;SDS011;33524;55.434;38.520;2023-04-23T05:16:45;15.15;;;11.05;;
47760;SDS011;33524;55.434;38.520;2023-04-23T05:19:14;18.33;;;11.60;;
47760;SDS011;33524;55.434;38.520;2023-04-23T05:21:42;20.35;;;12.35;;
47760;SDS011;33524;55.434;38.520;2023-04-23T05:24:10;15.43;;;8.73;;
47760;SDS011;33524;55.434;38.520;2023-04-23T05:26:38;16.20;;;10.38;;
47760;SDS011;33524;55.434;38.520;2023-04-23T05:29:06;18.15;;;11.18;;
47760;SDS011;33524;55.434;38.520;2023-04-23T05:31:34;18.92;;;10.18;;
47760;SDS011;33524;55.434;38.520;2023-04-23T05:34:02;13.70;;;8.43;;
47760;SDS011;33524;55.434;38.520;2023-04-23T05:36:30;13.27;;;9.05;;
47760;SDS011;33524;55.434;38.520;2023-04-23T05:38:58;20.92;;;10.95;;
47760;SDS011;33524;55.434;38.520;2023-04-23T05:41:26;16.52;;;9.32;;
47760;SDS011;33524;55.434;38.520;2023-04-23T05:43:55;12.57;;;9.18;;
47760;SDS011;33524;55.434;38.520;2023-04-23T05:46:23;11.38;;;6.65;;
47760;SDS011;33524;55.434;38.520;2023-04-23T05:48:51;9.77;;;7.12;;
47760;SDS011;33524;55.434;38.520;2023-04-23T05:51:20;10.10;;;7.25;;
47760;SDS011;33524;55.434;38.520;2023-04-23T05:53:48;7.15;;;5.40;;
47760;SDS011;33524;55.434;38.520;2023-04-23T05:56:16;9.27;;;6.78;;
47760;SDS011;33524;55.434;38.520;2023-04-23T05:58:45;10.32;;;5.93;;
47760;SDS011;33524;55.434;38.520;2023-04-23T06:01:13;11.68;;;6.78;;
47760;SDS011;33524;55.434;38.520;2023-04-23T06:03:41;9.43;;;6.55;;
47760;SDS011;33524;55.434;38.520;2023-04-23T06:06:12;8.30;;;5.07;;
47760;SDS011;33524;55.434;38.520;2023-04-23T06:08:40;7.45;;;5.20;;
47760;SDS011;33524;55.434;38.520;2023-04-23T06:11:26;8.75;;;5.47;;
47760;SDS011;33524;55.434;38.520;2023-04-23T06:13:55;8.45;;;4.87;;
47760;SDS011;33524;55.434;38.520;2023-04-23T06:16:23;7.45;;;3.75;;
47760;SDS011;33524;55.434;38.520;2023-04-23T06:18:51;7.60;;;4.05;;
47760;SDS011;33524;55.434;38.520;2023-04-23T06:21:21;7.50;;;3.67;;
47760;SDS011;33524;55.434;38.520;2023-04-23T06:23:49;7.78;;;4.93;;
47760;SDS011;33524;55.434;38.520;2023-04-23T06:26:17;6.72;;;3.72;;
47760;SDS011;33524;55.434;38.520;2023-04-23T06:28:47;5.82;;;3.40;;
47760;SDS011;33524;55.434;38.520;2023-04-23T06:31:16;9.15;;;3.80;;
47760;SDS011;33524;55.434;38.520;2023-04-23T06:33:47;4.53;;;3.42;;
47760;SDS011;33524;55.434;38.520;2023-04-23T06:36:15;6.75;;;4.00;;
47760;SDS011;33524;55.434;38.520;2023-04-23T06:38:42;6.62;;;4.30;;
47760;SDS011;33524;55.434;38.520;2023-04-23T06:41:11;5.60;;;3.30;;
47760;SDS011;33524;55.434;38.520;2023-04-23T06:43:39;5.25;;;2.50;;
47760;SDS011;33524;55.434;38.520;2023-04-23T06:46:13;6.82;;;2.97;;
47760;SDS011;33524;55.434;38.520;2023-04-23T06:48:42;7.72;;;3.40;;
47760;SDS011;33524;55.434;38.520;2023-04-23T06:51:09;5.15;;;3.37;;
47760;SDS011;33524;55.434;38.520;2023-04-23T06:53:38;4.47;;;2.67;;
47760;SDS011;33524;55.434;38.520;2023-04-23T06:56:08;3.80;;;2.67;;
47760;SDS011;33524;55.434;38.520;2023-04-23T06:58:36;5.18;;;2.85;;
47760;SDS011;33524;55.434;38.520;2023-04-23T07:01:07;3.70;;;2.40;;
47760;SDS011;33524;55.434;38.520;2023-04-23T07:03:37;6.53;;;2.47;;
47760;SDS011;33524;55.434;38.520;2023-04-23T07:06:06;4.57;;;2.15;;
47760;SDS011;33524;55.434;38.520;2023-04-23T07:08:34;5.25;;;1.92;;
47760;SDS011;33524;55.434;38.520;2023-04-23T07:11:02;6.57;;;2.35;;
47760;SDS011;33524;55.434;38.520;2023-04-23T07:13:30;4.40;;;2.97;;
47760;SDS011;33524;55.434;38.520;2023-04-23T07:15:58;5.22;;;2.65;;
47760;SDS011;33524;55.434;38.520;2023-04-23T07:18:26;4.62;;;2.87;;
47760;SDS011;33524;55.434;38.520;2023-04-23T07:20:54;3.20;;;1.75;;
47760;SDS011;33524;55.434;38.520;2023-04-23T07:23:23;4.75;;;2.47;;
47760;SDS011;33524;55.434;38.520;2023-04-23T07:25:51;7.00;;;3.53;;
47760;SDS011;33524;55.434;38.520;2023-04-23T07:28:19;3.37;;;1.67;;
47760;SDS011;33524;55.434;38.520;2023-04-23T07:30:47;3.45;;;2.00;;
47760;SDS011;33524;55.434;38.520;2023-04-23T07:33:15;4.12;;;1.87;;
47760;SDS011;33524;55.434;38.520;2023-04-23T07:35:44;3.20;;;1.75;;
47760;SDS011;33524;55.434;38.520;2023-04-23T07:38:12;3.35;;;1.83;;
47760;SDS011;33524;55.434;38.520;2023-04-23T07:40:41;4.32;;;1.48;;
47760;SDS011;33524;55.434;38.520;2023-04-23T07:43:13;3.28;;;1.50;;
47760;SDS011;33524;55.434;38.520;2023-04-23T07:45:44;3.85;;;2.20;;
47760;SDS011;33524;55.434;38.520;2023-04-23T07:48:13;3.37;;;1.50;;
47760;SDS011;33524;55.434;38.520;2023-04-23T07:50:41;1.80;;;1.10;;
47760;SDS011;33524;55.434;38.520;2023-04-23T07:53:09;1.95;;;1.37;;
47760;SDS011;33524;55.434;38.520;2023-04-23T07:55:37;2.35;;;1.40;;
47760;SDS011;33524;55.434;38.520;2023-04-23T07:58:08;2.55;;;1.35;;
47760;SDS011;33524;55.434;38.520;2023-04-23T08:00:36;3.72;;;1.90;;
47760;SDS011;33524;55.434;38.520;2023-04-23T08:03:04;3.42;;;1.77;;
47760;SDS011;33524;55.434;38.520;2023-04-23T08:05:32;4.37;;;2.12;;
47760;SDS011;33524;55.434;38.520;2023-04-23T08:08:00;3.33;;;2.08;;
47760;SDS011;33524;55.434;38.520;2023-04-23T08:10:28;1.52;;;1.30;;
47760;SDS011;33524;55.434;38.520;2023-04-23T08:12:56;2.40;;;1.35;;
47760;SDS011;33524;55.434;38.520;2023-04-23T08:15:24;3.97;;;1.50;;
47760;SDS011;33524;55.434;38.520;2023-04-23T08:17:52;3.40;;;1.35;;
47760;SDS011;33524;55.434;38.520;2023-04-23T08:20:20;2.50;;;1.55;;
47760;SDS011;33524;55.434;38.520;2023-04-23T08:22:49;2.12;;;1.40;;
47760;SDS011;33524;55.434;38.520;2023-04-23T08:25:20;1.55;;;0.93;;
47760;SDS011;33524;55.434;38.520;2023-04-23T08:27:48;2.20;;;1.30;;
47760;SDS011;33524;55.434;38.520;2023-04-23T08:30:16;2.22;;;1.65;;
47760;SDS011;33524;55.434;38.520;2023-04-23T08:32:45;5.30;;;1.77;;
47760;SDS011;33524;55.434;38.520;2023-04-23T08:35:17;4.75;;;1.85;;
47760;SDS011;33524;55.434;38.520;2023-04-23T08:37:46;1.48;;;1.23;;
47760;SDS011;33524;55.434;38.520;2023-04-23T08:40:14;2.72;;;1.45;;
47760;SDS011;33524;55.434;38.520;2023-04-23T08:45:22;3.55;;;1.30;;
47760;SDS011;33524;55.434;38.520;2023-04-23T08:47:51;2.58;;;1.35;;
47760;SDS011;33524;55.434;38.520;2023-04-23T08:50:20;3.62;;;1.50;;
47760;SDS011;33524;55.434;38.520;2023-04-23T08:52:53;2.25;;;1.70;;
47760;SDS011;33524;55.434;38.520;2023-04-23T08:55:22;3.60;;;1.90;;
47760;SDS011;33524;55.434;38.520;2023-04-23T08:57:51;2.80;;;1.75;;
47760;SDS011;33524;55.434;38.520;2023-04-23T09:00:19;3.65;;;1.30;;
47760;SDS011;33524;55.434;38.520;2023-04-23T09:02:52;1.40;;;1.27;;
47760;SDS011;33524;55.434;38.520;2023-04-23T09:05:21;2.92;;;1.58;;
47760;SDS011;33524;55.434;38.520;2023-04-23T09:07:49;3.10;;;1.50;;
47760;SDS011;33524;55.434;38.520;2023-04-23T09:10:20;2.97;;;1.58;;
47760;SDS011;33524;55.434;38.520;2023-04-23T09:12:49;4.30;;;1.60;;
47760;SDS011;33524;55.434;38.520;2023-04-23T09:15:17;2.90;;;1.60;;
47760;SDS011;33524;55.434;38.520;2023-04-23T09:17:46;3.20;;;1.62;;
47760;SDS011;33524;55.434;38.520;2023-04-23T09:20:16;3.37;;;1.90;;
47760;SDS011;33524;55.434;38.520;2023-04-23T09:22:51;2.45;;;1.23;;
47760;SDS011;33524;55.434;38.520;2023-04-23T09:25:20;5.65;;;2.03;;
47760;SDS011;33524;55.434;38.520;2023-04-23T09:27:50;2.83;;;1.58;;
47760;SDS011;33524;55.434;38.520;2023-04-23T09:30:19;1.55;;;1.45;;
47760;SDS011;33524;55.434;38.520;2023-04-23T09:32:48;1.95;;;1.45;;
47760;SDS011;33524;55.434;38.520;2023-04-23T09:35:16;2.67;;;1.50;;
47760;SDS011;33524;55.434;38.520;2023-04-23T09:37:49;2.65;;;1.60;;
47760;SDS011;33524;55.434;38.520;2023-04-23T09:40:21;4.10;;;2.20;;
47760;SDS011;33524;55.434;38.520;2023-04-23T09:42:51;2.55;;;1.95;;
47760;SDS011;33524;55.434;38.520;2023-04-23T09:45:23;3.28;;;1.83;;
47760;SDS011;33524;55.434;38.520;2023-04-23T09:47:55;2.70;;;1.73;;
47760;SDS011;33524;55.434;38.520;2023-04-23T09:50:31;5.65;;;2.00;;
47760;SDS011;33524;55.434;38.520;2023-04-23T09:53:01;5.25;;;2.80;;
47760;SDS011;33524;55.434;38.520;2023-04-23T09:55:42;2.83;;;1.90;;
47760;SDS011;33524;55.434;38.520;2023-04-23T09:58:12;3.62;;;1.60;;
47760;SDS011;33524;55.434;38.520;2023-04-23T10:00:42;3.92;;;2.30;;
47760;SDS011;33524;55.434;38.520;2023-04-23T10:03:10;4.97;;;2.05;;
47760;SDS011;33524;55.434;38.520;2023-04-23T10:05:39;4.43;;;2.03;;
47760;SDS011;33524;55.434;38.520;2023-04-23T10:08:28;5.28;;;1.85;;
47760;SDS011;33524;55.434;38.520;2023-04-23T10:10:58;3.70;;;1.90;;
47760;SDS011;33524;55.434;38.520;2023-04-23T10:13:46;6.53;;;2.78;;
47760;SDS011;33524;55.434;38.520;2023-04-23T10:16:15;5.18;;;2.12;;
47760;SDS011;33524;55.434;38.520;2023-04-23T10:18:51;4.75;;;2.53;;
47760;SDS011;33524;55.434;38.520;2023-04-23T10:21:23;4.75;;;2.10;;
47760;SDS011;33524;55.434;38.520;2023-04-23T10:24:12;3.10;;;1.95;;
47760;SDS011;33524;55.434;38.520;2023-04-23T10:26:46;9.55;;;5.43;;
47760;SDS011;33524;55.434;38.520;2023-04-23T10:29:16;4.68;;;2.62;;
47760;SDS011;33524;55.434;38.520;2023-04-23T10:31:57;4.80;;;1.80;;
47760;SDS011;33524;55.434;38.520;2023-04-23T10:34:29;3.42;;;1.55;;
47760;SDS011;33524;55.434;38.520;2023-04-23T10:36:59;3.35;;;1.40;;
47760;SDS011;33524;55.434;38.520;2023-04-23T10:39:30;3.95;;;1.73;;
47760;SDS011;33524;55.434;38.520;2023-04-23T10:42:01;1.37;;;0.93;;
47760;SDS011;33524;55.434;38.520;2023-04-23T10:44:41;3.55;;;2.28;;
47760;SDS011;33524;55.434;38.520;2023-04-23T10:47:13;5.35;;;1.83;;
47760;SDS011;33524;55.434;38.520;2023-04-23T10:49:43;1.55;;;1.12;;
47760;SDS011;33524;55.434;38.520;2023-04-23T10:52:14;3.30;;;1.70;;
47760;SDS011;33524;55.434;38.520;2023-04-23T10:54:59;4.20;;;2.00;;
47760;SDS011;33524;55.434;38.520;2023-04-23T10:57:29;4.72;;;1.67;;
47760;SDS011;33524;55.434;38.520;2023-04-23T10:59:58;5.80;;;2.75;;
47760;SDS011;33524;55.434;38.520;2023-04-23T11:02:41;4.25;;;1.80;;
47760;SDS011;33524;55.434;38.520;2023-04-23T11:05:11;3.95;;;1.80;;
47760;SDS011;33524;55.434;38.520;2023-04-23T11:07:39;5.57;;;1.95;;
47760;SDS011;33524;55.434;38.520;2023-04-23T11:10:11;4.40;;;2.30;;
47760;SDS011;33524;55.434;38.520;2023-04-23T11:12:40;4.45;;;1.60;;
47760;SDS011;33524;55.434;38.520;2023-04-23T11:15:11;3.00;;;1.73;;
47760;SDS011;33524;55.434;38.520;2023-04-23T11:20:18;2.35;;;1.70;;
47760;SDS011;33524;55.434;38.520;2023-04-23T11:22:48;3.22;;;1.73;;
47760;SDS011;33524;55.434;38.520;2023-04-23T11:25:20;2.60;;;1.70;;
47760;SDS011;33524;55.434;38.520;2023-04-23T11:27:51;4.62;;;1.67;;
47760;SDS011;33524;55.434;38.520;2023-04-23T11:30:24;2.75;;;1.20;;
47760;SDS011;33524;55.434;38.520;2023-04-23T11:32:54;4.85;;;1.85;;
47760;SDS011;33524;55.434;38.520;2023-04-23T11:35:27;5.57;;;1.85;;
47760;SDS011;33524;55.434;38.520;2023-04-23T11:37:57;3.95;;;1.92;;
47760;SDS011;33524;55.434;38.520;2023-04-23T11:40:25;5.50;;;1.52;;
47760;SDS011;33524;55.434;38.520;2023-04-23T11:42:57;2.45;;;1.67;;
47760;SDS011;33524;55.434;38.520;2023-04-23T11:45:26;1.92;;;1.40;;
47760;SDS011;33524;55.434;38.520;2023-04-23T11:47:56;3.05;;;1.45;;
47760;SDS011;33524;55.434;38.520;2023-04-23T11:50:31;4.28;;;1.90;;
47760;SDS011;33524;55.434;38.520;2023-04-23T11:53:04;4.93;;;1.20;;
47760;SDS011;33524;55.434;38.520;2023-04-23T11:55:34;2.22;;;1.30;;
47760;SDS011;33524;55.434;38.520;2023-04-23T11:58:03;3.72;;;1.52;;
47760;SDS011;33524;55.434;38.520;2023-04-23T12:00:31;1.33;;;1.20;;
47760;SDS011;33524;55.434;38.520;2023-04-23T12:03:00;2.92;;;1.85;;
47760;SDS011;33524;55.434;38.520;2023-04-23T12:08:10;9.88;;;5.47;;
47760;SDS011;33524;55.434;38.520;2023-04-23T12:10:48;7.18;;;4.97;;
47760;SDS011;33524;55.434;38.520;2023-04-23T12:15:53;3.60;;;2.00;;
47760;SDS011;33524;55.434;38.520;2023-04-23T12:18:29;5.33;;;1.73;;
47760;SDS011;33524;55.434;38.520;2023-04-23T12:21:08;3.35;;;1.60;;
47760;SDS011;33524;55.434;38.520;2023-04-23T12:23:38;2.47;;;1.52;;
47760;SDS011;33524;55.434;38.520;2023-04-23T12:26:12;2.83;;;1.80;;
47760;SDS011;33524;55.434;38.520;2023-04-23T12:28:49;2.80;;;1.45;;
47760;SDS011;33524;55.434;38.520;2023-04-23T12:31:22;1.67;;;1.55;;
47760;SDS011;33524;55.434;38.520;2023-04-23T12:33:55;3.45;;;2.10;;
47760;SDS011;33524;55.434;38.520;2023-04-23T12:36:26;5.43;;;2.60;;
47760;SDS011;33524;55.434;38.520;2023-04-23T12:39:20;4.20;;;2.55;;
47760;SDS011;33524;55.434;38.520;2023-04-23T12:41:58;3.60;;;2.20;;
47760;SDS011;33524;55.434;38.520;2023-04-23T12:44:32;5.40;;;2.33;;
47760;SDS011;33524;55.434;38.520;2023-04-23T12:47:04;2.83;;;1.80;;
47760;SDS011;33524;55.434;38.520;2023-04-23T12:49:35;3.65;;;1.50;;
47760;SDS011;33524;55.434;38.520;2023-04-23T12:52:05;2.70;;;1.90;;
47760;SDS011;33524;55.434;38.520;2023-04-23T12:54:37;3.58;;;1.58;;
47760;SDS011;33524;55.434;38.520;2023-04-23T12:57:09;3.05;;;1.83;;
47760;SDS011;33524;55.434;38.520;2023-04-23T12:59:38;4.90;;;2.07;;
47760;SDS011;33524;55.434;38.520;2023-04-23T13:02:07;3.00;;;2.00;;
47760;SDS011;33524;55.434;38.520;2023-04-23T13:04:36;3.95;;;2.30;;
47760;SDS011;33524;55.434;38.520;2023-04-23T13:07:04;3.62;;;2.60;;
47760;SDS011;33524;55.434;38.520;2023-04-23T13:09:32;6.78;;;2.28;;
47760;SDS011;33524;55.434;38.520;2023-04-23T13:12:02;4.00;;;2.00;;
47760;SDS011;33524;55.434;38.520;2023-04-23T13:14:30;3.00;;;1.70;;
47760;SDS011;33524;55.434;38.520;2023-04-23T13:16:59;3.53;;;1.70;;
47760;SDS011;33524;55.434;38.520;2023-04-23T13:19:29;3.42;;;2.00;;
47760;SDS011;33524;55.434;38.520;2023-04-23T13:21:57;3.08;;;1.85;;
47760;SDS011;33524;55.434;38.520;2023-04-23T13:24:26;3.22;;;1.75;;
47760;SDS011;33524;55.434;38.520;2023-04-23T13:26:55;3.75;;;2.00;;
47760;SDS011;33524;55.434;38.520;2023-04-23T13:29:26;3.05;;;1.70;;
47760;SDS011;33524;55.434;38.520;2023-04-23T13:31:57;4.32;;;2.00;;
47760;SDS011;33524;55.434;38.520;2023-04-23T13:34:25;3.37;;;2.10;;
47760;SDS011;33524;55.434;38.520;2023-04-23T13:36:53;3.37;;;2.28;;
47760;SDS011;33524;55.434;38.520;2023-04-23T13:39:26;5.50;;;1.90;;
47760;SDS011;33524;55.434;38.520;2023-04-23T13:42:11;2.90;;;1.90;;
47760;SDS011;33524;55.434;38.520;2023-04-23T13:44:41;3.08;;;2.00;;
47760;SDS011;33524;55.434;38.520;2023-04-23T13:47:14;3.20;;;2.15;;
47760;SDS011;33524;55.434;38.520;2023-04-23T13:49:44;3.15;;;2.12;;
47760;SDS011;33524;55.434;38.520;2023-04-23T13:52:19;4.18;;;1.85;;
47760;SDS011;33524;55.434;38.520;2023-04-23T13:54:50;2.75;;;1.80;;
47760;SDS011;33524;55.434;38.520;2023-04-23T13:57:25;4.03;;;2.70;;
47760;SDS011;33524;55.434;38.520;2023-04-23T13:59:59;5.53;;;2.80;;
47760;SDS011;33524;55.434;38.520;2023-04-23T14:02:32;4.82;;;2.47;;
47760;SDS011;33524;55.434;38.520;2023-04-23T14:05:10;5.07;;;2.47;;
47760;SDS011;33524;55.434;38.520;2023-04-23T14:07:43;3.30;;;2.10;;
47760;SDS011;33524;55.434;38.520;2023-04-23T14:10:15;3.55;;;2.00;;
47760;SDS011;33524;55.434;38.520;2023-04-23T14:12:46;3.92;;;2.53;;
47760;SDS011;33524;55.434;38.520;2023-04-23T14:15:19;3.80;;;2.28;;
47760;SDS011;33524;55.434;38.520;2023-04-23T14:17:53;5.03;;;2.40;;
47760;SDS011;33524;55.434;38.520;2023-04-23T14:20:28;3.30;;;1.85;;
47760;SDS011;33524;55.434;38.520;2023-04-23T14:25:57;5.57;;;1.80;;
47760;SDS011;33524;55.434;38.520;2023-04-23T14:28:38;5.18;;;2.00;;
47760;SDS011;33524;55.434;38.520;2023-04-23T14:31:13;2.90;;;1.77;;
47760;SDS011;33524;55.434;38.520;2023-04-23T14:33:43;5.12;;;2.42;;
47760;SDS011;33524;55.434;38.520;2023-04-23T14:36:15;6.87;;;2.43;;
47760;SDS011;33524;55.434;38.520;2023-04-23T14:38:45;3.40;;;2.33;;
47760;SDS011;33524;55.434;38.520;2023-04-23T14:41:18;4.28;;;2.10;;
47760;SDS011;33524;55.434;38.520;2023-04-23T14:43:55;3.65;;;2.42;;
47760;SDS011;33524;55.434;38.520;2023-04-23T14:49:30;4.30;;;2.37;;
47760;SDS011;33524;55.434;38.520;2023-04-23T14:52:03;3.60;;;2.12;;
47760;SDS011;33524;55.434;38.520;2023-04-23T14:54:35;3.50;;;2.03;;
47760;SDS011;33524;55.434;38.520;2023-04-23T14:57:03;3.95;;;2.12;;